sensor_id;sensor_type;location;lat;lon;timestamp;pressure;altitude;pressure_sealevel;temperature;humidity
64340;BME280;63709;53.258;-8.814;2023-04-21T00:00:23;102112.09;;;11.26;100.00
64340;BME280;63709;53.258;-8.814;2023-04-21T00:02:49;102094.09;;;10.98;100.00
64340;BME280;63709;53.258;-8.814;2023-04-21T00:05:15;102106.66;;;11.28;100.00
64340;BME280;63709;53.258;-8.814;2023-04-21T00:07:41;102109.41;;;11.26;100.00
64340;BME280;63709;53.258;-8.814;2023-04-21T00:10:09;102108.41;;;11.13;100.00
64340;BME280;63709;53.258;-8.814;2023-04-21T00:12:36;102087.47;;;11.05;100.00
64340;BME280;63709;53.258;-8.814;2023-04-21T00:15:03;102104.34;;;11.06;100.00
64340;BME280;63709;53.258;-8.814;2023-04-21T00:17:29;102105.28;;;11.21;100.00
64340;BME280;63709;53.258;-8.814;2023-04-21T00:19:54;102074.63;;;10.80;100.00
64340;BME280;63709;53.258;-8.814;2023-04-21T00:22:20;102090.03;;;11.07;100.00
64340;BME280;63709;53.258;-8.814;2023-04-21T00:24:46;102096.50;;;11.03;100.00
64340;BME280;63709;53.258;-8.814;2023-04-21T00:27:13;102089.19;;;10.90;100.00
64340;BME280;63709;53.258;-8.814;2023-04-21T00:29:41;102084.88;;;10.72;100.00
64340;BME280;63709;53.258;-8.814;2023-04-21T00:32:07;102083.22;;;10.70;100.00
64340;BME280;63709;53.258;-8.814;2023-04-21T00:34:36;102071.31;;;10.75;100.00
64340;BME280;63709;53.258;-8.814;2023-04-21T00:37:02;102080.56;;;10.70;100.00
64340;BME280;63709;53.258;-8.814;2023-04-21T00:39:28;102099.84;;;10.75;100.00
64340;BME280;63709;53.258;-8.814;2023-04-21T00:41:55;102105.38;;;10.72;100.00
64340;BME280;63709;53.258;-8.814;2023-04-21T00:44:22;102085.28;;;10.80;100.00
64340;BME280;63709;53.258;-8.814;2023-04-21T00:46:49;102084.50;;;10.78;100.00
64340;BME280;63709;53.258;-8.814;2023-04-21T00:49:15;102089.16;;;10.59;100.00
64340;BME280;63709;53.258;-8.814;2023-04-21T00:51:41;102092.50;;;10.62;100.00
64340;BME280;63709;53.258;-8.814;2023-04-21T00:54:08;102071.47;;;10.56;100.00
64340;BME280;63709;53.258;-8.814;2023-04-21T00:56:36;102074.75;;;10.46;100.00
64340;BME280;63709;53.258;-8.814;2023-04-21T00:59:02;102080.31;;;10.41;100.00
64340;BME280;63709;53.258;-8.814;2023-04-21T01:01:28;102093.31;;;10.31;100.00
64340;BME280;63709;53.258;-8.814;2023-04-21T01:03:58;102092.03;;;10.38;100.00
64340;BME280;63709;53.258;-8.814;2023-04-21T01:06:27;102068.03;;;10.21;100.00
64340;BME280;63709;53.258;-8.814;2023-04-21T01:08:54;102089.22;;;10.24;100.00
64340;BME280;63709;53.258;-8.814;2023-04-21T01:11:20;102096.03;;;10.63;100.00
64340;BME280;63709;53.258;-8.814;2023-04-21T01:13:51;102098.03;;;10.26;100.00
64340;BME280;63709;53.258;-8.814;2023-04-21T01:16:17;102098.25;;;10.39;100.00
64340;BME280;63709;53.258;-8.814;2023-04-21T01:18:44;102097.38;;;10.38;100.00
64340;BME280;63709;53.258;-8.814;2023-04-21T01:21:11;102086.63;;;10.23;100.00
64340;BME280;63709;53.258;-8.814;2023-04-21T01:23:40;102079.75;;;10.01;100.00
64340;BME280;63709;53.258;-8.814;2023-04-21T01:26:06;102090.88;;;10.09;100.00
64340;BME280;63709;53.258;-8.814;2023-04-21T01:28:32;102087.81;;;10.17;100.00
64340;BME280;63709;53.258;-8.814;2023-04-21T01:30:57;102073.63;;;9.99;100.00
64340;BME280;63709;53.258;-8.814;2023-04-21T01:33:24;102073.94;;;9.93;100.00
64340;BME280;63709;53.258;-8.814;2023-04-21T01:35:50;102074.94;;;10.08;100.00
64340;BME280;63709;53.258;-8.814;2023-04-21T01:38:16;102077.47;;;10.11;100.00
64340;BME280;63709;53.258;-8.814;2023-04-21T01:40:49;102097.41;;;10.04;100.00
64340;BME280;63709;53.258;-8.814;2023-04-21T01:43:16;102066.78;;;9.93;100.00
64340;BME280;63709;53.258;-8.814;2023-04-21T01:45:42;102056.91;;;10.13;100.00
64340;BME280;63709;53.258;-8.814;2023-04-21T01:48:08;102086.25;;;10.13;100.00
64340;BME280;63709;53.258;-8.814;2023-04-21T01:50:34;102093.53;;;10.27;100.00
64340;BME280;63709;53.258;-8.814;2023-04-21T01:53:00;102077.91;;;10.19;100.00
64340;BME280;63709;53.258;-8.814;2023-04-21T01:55:26;102078.53;;;10.24;100.00
64340;BME280;63709;53.258;-8.814;2023-04-21T01:57:52;102088.34;;;10.24;100.00
64340;BME280;63709;53.258;-8.814;2023-04-21T02:00:18;102088.63;;;10.02;100.00
64340;BME280;63709;53.258;-8.814;2023-04-21T02:02:44;102089.22;;;10.24;100.00
64340;BME280;63709;53.258;-8.814;2023-04-21T02:05:10;102085.22;;;10.15;100.00
64340;BME280;63709;53.258;-8.814;2023-04-21T02:07:35;102086.50;;;10.26;100.00
64340;BME280;63709;53.258;-8.814;2023-04-21T02:10:01;102076.03;;;10.21;100.00
64340;BME280;63709;53.258;-8.814;2023-04-21T02:12:31;102070.84;;;10.35;100.00
64340;BME280;63709;53.258;-8.814;2023-04-21T02:14:56;102083.03;;;10.24;100.00
64340;BME280;63709;53.258;-8.814;2023-04-21T02:17:22;102063.00;;;10.15;100.00
64340;BME280;63709;53.258;-8.814;2023-04-21T02:19:49;102072.34;;;10.24;100.00
64340;BME280;63709;53.258;-8.814;2023-04-21T02:22:14;102069.09;;;10.34;100.00
64340;BME280;63709;53.258;-8.814;2023-04-21T02:24:41;102064.69;;;10.51;100.00
64340;BME280;63709;53.258;-8.814;2023-04-21T02:27:06;102077.19;;;10.66;100.00
64340;BME280;63709;53.258;-8.814;2023-04-21T02:29:33;102063.25;;;10.61;100.00
64340;BME280;63709;53.258;-8.814;2023-04-21T02:31:59;102058.31;;;10.53;100.00
64340;BME280;63709;53.258;-8.814;2023-04-21T02:34:24;102053.56;;;10.43;100.00
64340;BME280;63709;53.258;-8.814;2023-04-21T02:36:50;102063.19;;;10.45;100.00
64340;BME280;63709;53.258;-8.814;2023-04-21T02:39:16;102045.41;;;10.46;100.00
64340;BME280;63709;53.258;-8.814;2023-04-21T02:41:43;102028.16;;;10.18;100.00
64340;BME280;63709;53.258;-8.814;2023-04-21T02:44:08;102056.13;;;10.28;100.00
64340;BME280;63709;53.258;-8.814;2023-04-21T02:46:34;102054.75;;;10.19;100.00
64340;BME280;63709;53.258;-8.814;2023-04-21T02:49:00;102058.06;;;10.25;100.00
64340;BME280;63709;53.258;-8.814;2023-04-21T02:51:26;102041.06;;;9.92;100.00
64340;BME280;63709;53.258;-8.814;2023-04-21T02:53:51;102048.38;;;10.06;100.00
64340;BME280;63709;53.258;-8.814;2023-04-21T02:56:17;102038.38;;;10.10;100.00
64340;BME280;63709;53.258;-8.814;2023-04-21T02:58:43;102014.69;;;10.04;100.00
64340;BME280;63709;53.258;-8.814;2023-04-21T03:01:10;102043.31;;;10.17;100.00
64340;BME280;63709;53.258;-8.814;2023-04-21T03:03:35;102017.78;;;9.96;100.00
64340;BME280;63709;53.258;-8.814;2023-04-21T03:06:03;102025.47;;;10.02;100.00
64340;BME280;63709;53.258;-8.814;2023-04-21T03:08:30;102022.38;;;10.10;100.00
64340;BME280;63709;53.258;-8.814;2023-04-21T03:10:55;102017.28;;;9.72;100.00
64340;BME280;63709;53.258;-8.814;2023-04-21T03:13:22;102015.84;;;9.82;100.00
64340;BME280;63709;53.258;-8.814;2023-04-21T03:15:49;102007.13;;;9.79;100.00
64340;BME280;63709;53.258;-8.814;2023-04-21T03:18:14;101996.31;;;9.82;100.00
64340;BME280;63709;53.258;-8.814;2023-04-21T03:20:40;102001.19;;;9.74;100.00
64340;BME280;63709;53.258;-8.814;2023-04-21T03:23:06;101999.03;;;9.64;100.00
64340;BME280;63709;53.258;-8.814;2023-04-21T03:25:32;102003.34;;;9.50;100.00
64340;BME280;63709;53.258;-8.814;2023-04-21T03:27:57;101985.69;;;9.47;100.00
64340;BME280;63709;53.258;-8.814;2023-04-21T03:30:23;101983.72;;;9.51;100.00
64340;BME280;63709;53.258;-8.814;2023-04-21T03:32:51;101964.63;;;9.42;100.00
64340;BME280;63709;53.258;-8.814;2023-04-21T03:35:17;101978.38;;;8.99;100.00
64340;BME280;63709;53.258;-8.814;2023-04-21T03:37:43;101973.53;;;9.07;100.00
64340;BME280;63709;53.258;-8.814;2023-04-21T03:40:09;101976.66;;;9.15;100.00
64340;BME280;63709;53.258;-8.814;2023-04-21T03:42:35;101977.53;;;9.15;100.00
64340;BME280;63709;53.258;-8.814;2023-04-21T03:45:06;101963.41;;;8.96;100.00
64340;BME280;63709;53.258;-8.814;2023-04-21T03:47:32;101978.50;;;8.78;100.00
64340;BME280;63709;53.258;-8.814;2023-04-21T03:49:59;101976.56;;;8.63;100.00
64340;BME280;63709;53.258;-8.814;2023-04-21T03:52:25;101981.66;;;8.67;100.00
64340;BME280;63709;53.258;-8.814;2023-04-21T03:54:50;101969.06;;;8.71;100.00
64340;BME280;63709;53.258;-8.814;2023-04-21T03:57:16;101971.75;;;8.52;100.00
64340;BME280;63709;53.258;-8.814;2023-04-21T03:59:43;101962.63;;;8.58;100.00
64340;BME280;63709;53.258;-8.814;2023-04-21T04:02:08;101978.63;;;8.94;100.00
64340;BME280;63709;53.258;-8.814;2023-04-21T04:04:34;101974.56;;;8.68;100.00
64340;BME280;63709;53.258;-8.814;2023-04-21T04:07:00;101988.03;;;8.65;100.00
64340;BME280;63709;53.258;-8.814;2023-04-21T04:09:27;101979.53;;;8.93;100.00
64340;BME280;63709;53.258;-8.814;2023-04-21T04:11:53;101970.25;;;9.02;100.00
64340;BME280;63709;53.258;-8.814;2023-04-21T04:14:19;101973.94;;;9.16;100.00
64340;BME280;63709;53.258;-8.814;2023-04-21T04:16:44;101942.91;;;9.15;100.00
64340;BME280;63709;53.258;-8.814;2023-04-21T04:19:11;101946.91;;;9.07;100.00
64340;BME280;63709;53.258;-8.814;2023-04-21T04:21:37;101933.91;;;9.18;100.00
64340;BME280;63709;53.258;-8.814;2023-04-21T04:24:03;101939.53;;;9.29;100.00
64340;BME280;63709;53.258;-8.814;2023-04-21T04:26:31;101935.91;;;9.30;100.00
64340;BME280;63709;53.258;-8.814;2023-04-21T04:29:03;101942.75;;;9.18;100.00
64340;BME280;63709;53.258;-8.814;2023-04-21T04:31:30;101943.16;;;9.28;100.00
64340;BME280;63709;53.258;-8.814;2023-04-21T04:33:57;101933.44;;;9.10;100.00
64340;BME280;63709;53.258;-8.814;2023-04-21T04:36:23;101929.13;;;9.07;100.00
64340;BME280;63709;53.258;-8.814;2023-04-21T04:38:49;101941.72;;;9.04;100.00
64340;BME280;63709;53.258;-8.814;2023-04-21T04:41:15;101941.03;;;9.17;100.00
64340;BME280;63709;53.258;-8.814;2023-04-21T04:43:41;101932.09;;;9.01;100.00
64340;BME280;63709;53.258;-8.814;2023-04-21T04:46:08;101922.44;;;8.81;100.00
64340;BME280;63709;53.258;-8.814;2023-04-21T04:48:35;101931.94;;;8.87;100.00
64340;BME280;63709;53.258;-8.814;2023-04-21T04:51:01;101930.81;;;9.08;100.00
64340;BME280;63709;53.258;-8.814;2023-04-21T04:53:29;101931.00;;;9.05;100.00
64340;BME280;63709;53.258;-8.814;2023-04-21T04:55:55;101940.41;;;9.12;100.00
64340;BME280;63709;53.258;-8.814;2023-04-21T04:58:28;101937.66;;;9.31;100.00
64340;BME280;63709;53.258;-8.814;2023-04-21T05:00:54;101953.16;;;9.40;100.00
64340;BME280;63709;53.258;-8.814;2023-04-21T05:03:20;101940.63;;;9.25;100.00
64340;BME280;63709;53.258;-8.814;2023-04-21T05:05:46;101960.22;;;9.41;100.00
64340;BME280;63709;53.258;-8.814;2023-04-21T05:08:11;101960.03;;;9.62;100.00
64340;BME280;63709;53.258;-8.814;2023-04-21T05:10:37;101946.66;;;9.29;100.00
64340;BME280;63709;53.258;-8.814;2023-04-21T05:13:04;101936.88;;;9.12;100.00
64340;BME280;63709;53.258;-8.814;2023-04-21T05:15:29;101937.97;;;8.90;100.00
64340;BME280;63709;53.258;-8.814;2023-04-21T05:18:01;101957.13;;;8.97;100.00
64340;BME280;63709;53.258;-8.814;2023-04-21T05:20:26;101947.31;;;9.16;100.00
64340;BME280;63709;53.258;-8.814;2023-04-21T05:22:52;101959.38;;;9.24;100.00
64340;BME280;63709;53.258;-8.814;2023-04-21T05:25:19;101957.56;;;9.24;100.00
64340;BME280;63709;53.258;-8.814;2023-04-21T05:27:50;101941.66;;;9.05;100.00
64340;BME280;63709;53.258;-8.814;2023-04-21T05:30:16;101952.13;;;9.08;100.00
64340;BME280;63709;53.258;-8.814;2023-04-21T05:32:42;101951.91;;;8.95;100.00
64340;BME280;63709;53.258;-8.814;2023-04-21T05:35:07;101952.53;;;8.83;100.00
64340;BME280;63709;53.258;-8.814;2023-04-21T05:37:34;101946.91;;;9.07;100.00
64340;BME280;63709;53.258;-8.814;2023-04-21T05:40:01;101927.88;;;9.14;100.00
64340;BME280;63709;53.258;-8.814;2023-04-21T05:42:27;101935.25;;;9.09;100.00
64340;BME280;63709;53.258;-8.814;2023-04-21T05:44:52;101933.59;;;9.24;100.00
64340;BME280;63709;53.258;-8.814;2023-04-21T05:47:19;101935.00;;;9.31;100.00
64340;BME280;63709;53.258;-8.814;2023-04-21T05:49:46;101947.06;;;9.38;100.00
64340;BME280;63709;53.258;-8.814;2023-04-21T05:52:15;101948.84;;;9.38;100.00
64340;BME280;63709;53.258;-8.814;2023-04-21T05:54:41;101930.38;;;9.17;100.00
64340;BME280;63709;53.258;-8.814;2023-04-21T05:57:12;101912.19;;;9.26;100.00
64340;BME280;63709;53.258;-8.814;2023-04-21T05:59:38;101928.41;;;9.38;100.00
64340;BME280;63709;53.258;-8.814;2023-04-21T06:02:03;101935.91;;;9.65;100.00
64340;BME280;63709;53.258;-8.814;2023-04-21T06:04:29;101939.13;;;9.54;100.00
64340;BME280;63709;53.258;-8.814;2023-04-21T06:06:55;101947.31;;;9.67;100.00
64340;BME280;63709;53.258;-8.814;2023-04-21T06:09:21;101925.09;;;9.51;100.00
64340;BME280;63709;53.258;-8.814;2023-04-21T06:11:47;101914.56;;;9.65;100.00
64340;BME280;63709;53.258;-8.814;2023-04-21T06:14:15;101917.88;;;9.86;100.00
64340;BME280;63709;53.258;-8.814;2023-04-21T06:16:41;101924.53;;;9.94;100.00
64340;BME280;63709;53.258;-8.814;2023-04-21T06:19:07;101909.28;;;9.97;100.00
64340;BME280;63709;53.258;-8.814;2023-04-21T06:21:39;101917.84;;;9.70;100.00
64340;BME280;63709;53.258;-8.814;2023-04-21T06:24:05;101921.59;;;9.83;100.00
64340;BME280;63709;53.258;-8.814;2023-04-21T06:26:31;101913.00;;;9.94;100.00
64340;BME280;63709;53.258;-8.814;2023-04-21T06:28:56;101915.41;;;9.99;100.00
64340;BME280;63709;53.258;-8.814;2023-04-21T06:31:22;101912.03;;;9.95;100.00
64340;BME280;63709;53.258;-8.814;2023-04-21T06:33:48;101895.72;;;10.01;100.00
64340;BME280;63709;53.258;-8.814;2023-04-21T06:36:13;101910.03;;;10.32;100.00
64340;BME280;63709;53.258;-8.814;2023-04-21T06:38:39;101885.38;;;10.11;100.00
64340;BME280;63709;53.258;-8.814;2023-04-21T06:41:08;101899.25;;;10.33;100.00
64340;BME280;63709;53.258;-8.814;2023-04-21T06:43:35;101895.97;;;10.60;100.00
64340;BME280;63709;53.258;-8.814;2023-04-21T06:46:00;101883.53;;;10.29;100.00
64340;BME280;63709;53.258;-8.814;2023-04-21T06:48:26;101893.84;;;10.51;100.00
64340;BME280;63709;53.258;-8.814;2023-04-21T06:50:52;101873.84;;;10.58;100.00
64340;BME280;63709;53.258;-8.814;2023-04-21T06:53:17;101852.31;;;10.61;100.00
64340;BME280;63709;53.258;-8.814;2023-04-21T06:55:43;101866.25;;;10.66;100.00
64340;BME280;63709;53.258;-8.814;2023-04-21T06:58:10;101866.66;;;10.74;100.00
64340;BME280;63709;53.258;-8.814;2023-04-21T07:00:35;101855.16;;;10.58;100.00
64340;BME280;63709;53.258;-8.814;2023-04-21T07:03:01;101859.19;;;10.65;100.00
64340;BME280;63709;53.258;-8.814;2023-04-21T07:05:27;101858.63;;;10.74;100.00
64340;BME280;63709;53.258;-8.814;2023-04-21T07:07:54;101843.94;;;10.67;100.00
64340;BME280;63709;53.258;-8.814;2023-04-21T07:10:27;101842.22;;;10.66;100.00
64340;BME280;63709;53.258;-8.814;2023-04-21T07:12:54;101824.38;;;10.66;100.00
64340;BME280;63709;53.258;-8.814;2023-04-21T07:15:21;101846.34;;;10.72;100.00
64340;BME280;63709;53.258;-8.814;2023-04-21T07:17:46;101828.69;;;10.69;100.00
64340;BME280;63709;53.258;-8.814;2023-04-21T07:20:12;101834.31;;;10.64;100.00
64340;BME280;63709;53.258;-8.814;2023-04-21T07:22:44;101828.28;;;10.75;100.00
64340;BME280;63709;53.258;-8.814;2023-04-21T07:25:10;101854.72;;;11.10;100.00
64340;BME280;63709;53.258;-8.814;2023-04-21T07:27:36;101830.31;;;11.16;100.00
64340;BME280;63709;53.258;-8.814;2023-04-21T07:30:03;101847.50;;;11.41;100.00
64340;BME280;63709;53.258;-8.814;2023-04-21T07:32:29;101838.44;;;10.84;100.00
64340;BME280;63709;53.258;-8.814;2023-04-21T07:34:55;101855.25;;;11.01;100.00
64340;BME280;63709;53.258;-8.814;2023-04-21T07:37:21;101851.41;;;11.49;100.00
64340;BME280;63709;53.258;-8.814;2023-04-21T07:39:48;101836.50;;;11.17;100.00
64340;BME280;63709;53.258;-8.814;2023-04-21T07:42:14;101861.34;;;11.61;100.00
64340;BME280;63709;53.258;-8.814;2023-04-21T07:44:39;101844.72;;;11.56;100.00
64340;BME280;63709;53.258;-8.814;2023-04-21T07:47:05;101849.88;;;11.88;100.00
64340;BME280;63709;53.258;-8.814;2023-04-21T07:49:31;101858.88;;;11.87;100.00
64340;BME280;63709;53.258;-8.814;2023-04-21T07:51:57;101839.06;;;11.90;100.00
64340;BME280;63709;53.258;-8.814;2023-04-21T07:54:22;101850.38;;;11.95;100.00
64340;BME280;63709;53.258;-8.814;2023-04-21T07:56:49;101847.91;;;12.19;100.00
64340;BME280;63709;53.258;-8.814;2023-04-21T07:59:15;101852.63;;;12.01;100.00
64340;BME280;63709;53.258;-8.814;2023-04-21T08:01:41;101838.69;;;11.96;100.00
64340;BME280;63709;53.258;-8.814;2023-04-21T08:04:07;101848.94;;;12.16;100.00
64340;BME280;63709;53.258;-8.814;2023-04-21T08:06:33;101831.81;;;11.92;100.00
64340;BME280;63709;53.258;-8.814;2023-04-21T08:09:00;101808.44;;;12.08;100.00
64340;BME280;63709;53.258;-8.814;2023-04-21T08:11:26;101832.22;;;11.85;100.00
64340;BME280;63709;53.258;-8.814;2023-04-21T08:13:53;101825.31;;;11.81;100.00
64340;BME280;63709;53.258;-8.814;2023-04-21T08:16:18;101822.75;;;12.21;100.00
64340;BME280;63709;53.258;-8.814;2023-04-21T08:18:44;101829.00;;;12.34;100.00
64340;BME280;63709;53.258;-8.814;2023-04-21T08:21:10;101809.81;;;12.55;100.00
64340;BME280;63709;53.258;-8.814;2023-04-21T08:23:35;101798.25;;;12.67;100.00
64340;BME280;63709;53.258;-8.814;2023-04-21T08:26:01;101792.94;;;12.40;100.00
64340;BME280;63709;53.258;-8.814;2023-04-21T08:28:28;101813.00;;;12.47;100.00
64340;BME280;63709;53.258;-8.814;2023-04-21T08:30:53;101788.69;;;12.50;100.00
64340;BME280;63709;53.258;-8.814;2023-04-21T08:33:19;101814.16;;;12.83;100.00
64340;BME280;63709;53.258;-8.814;2023-04-21T08:35:44;101810.78;;;12.67;100.00
64340;BME280;63709;53.258;-8.814;2023-04-21T08:38:10;101780.25;;;12.82;100.00
64340;BME280;63709;53.258;-8.814;2023-04-21T08:40:36;101792.44;;;12.48;100.00
64340;BME280;63709;53.258;-8.814;2023-04-21T08:43:05;101802.47;;;12.44;100.00
64340;BME280;63709;53.258;-8.814;2023-04-21T08:45:32;101806.41;;;12.78;100.00
64340;BME280;63709;53.258;-8.814;2023-04-21T08:47:59;101791.63;;;12.86;100.00
64340;BME280;63709;53.258;-8.814;2023-04-21T08:50:28;101806.22;;;12.94;100.00
64340;BME280;63709;53.258;-8.814;2023-04-21T08:52:54;101789.41;;;13.30;100.00
64340;BME280;63709;53.258;-8.814;2023-04-21T08:55:30;101785.75;;;13.19;100.00
64340;BME280;63709;53.258;-8.814;2023-04-21T08:57:56;101794.72;;;13.56;100.00
64340;BME280;63709;53.258;-8.814;2023-04-21T09:00:21;101783.03;;;13.57;100.00
64340;BME280;63709;53.258;-8.814;2023-04-21T09:02:56;101762.53;;;13.93;100.00
64340;BME280;63709;53.258;-8.814;2023-04-21T09:05:27;101775.94;;;13.93;100.00
64340;BME280;63709;53.258;-8.814;2023-04-21T09:08:06;101749.75;;;13.96;100.00
64340;BME280;63709;53.258;-8.814;2023-04-21T09:10:51;101736.69;;;13.55;100.00
64340;BME280;63709;53.258;-8.814;2023-04-21T09:13:18;101761.34;;;14.21;100.00
64340;BME280;63709;53.258;-8.814;2023-04-21T09:15:49;101720.13;;;13.98;100.00
64340;BME280;63709;53.258;-8.814;2023-04-21T09:18:21;101725.28;;;14.12;100.00
64340;BME280;63709;53.258;-8.814;2023-04-21T09:20:49;101744.09;;;14.47;100.00
64340;BME280;63709;53.258;-8.814;2023-04-21T09:23:16;101755.25;;;14.30;100.00
64340;BME280;63709;53.258;-8.814;2023-04-21T09:25:43;101727.31;;;14.33;100.00
64340;BME280;63709;53.258;-8.814;2023-04-21T09:28:13;101746.41;;;14.76;100.00
64340;BME280;63709;53.258;-8.814;2023-04-21T09:30:40;101728.56;;;14.86;100.00
64340;BME280;63709;53.258;-8.814;2023-04-21T09:33:14;101749.22;;;15.08;100.00
64340;BME280;63709;53.258;-8.814;2023-04-21T09:35:41;101732.00;;;14.99;100.00
64340;BME280;63709;53.258;-8.814;2023-04-21T09:38:11;101740.88;;;15.79;100.00
64340;BME280;63709;53.258;-8.814;2023-04-21T09:40:37;101734.56;;;15.68;100.00
64340;BME280;63709;53.258;-8.814;2023-04-21T09:43:03;101718.66;;;15.97;100.00
64340;BME280;63709;53.258;-8.814;2023-04-21T09:45:29;101726.50;;;16.01;100.00
64340;BME280;63709;53.258;-8.814;2023-04-21T09:47:56;101722.06;;;15.67;100.00
64340;BME280;63709;53.258;-8.814;2023-04-21T09:50:23;101671.97;;;15.33;100.00
64340;BME280;63709;53.258;-8.814;2023-04-21T09:52:55;101723.28;;;15.63;100.00
64340;BME280;63709;53.258;-8.814;2023-04-21T09:55:25;101697.66;;;15.91;100.00
64340;BME280;63709;53.258;-8.814;2023-04-21T09:57:51;101707.19;;;15.95;100.00
64340;BME280;63709;53.258;-8.814;2023-04-21T10:00:27;101688.53;;;15.60;100.00
64340;BME280;63709;53.258;-8.814;2023-04-21T10:02:57;101705.09;;;15.99;100.00
64340;BME280;63709;53.258;-8.814;2023-04-21T10:05:27;101710.34;;;15.68;100.00
64340;BME280;63709;53.258;-8.814;2023-04-21T10:07:53;101717.59;;;15.89;100.00
64340;BME280;63709;53.258;-8.814;2023-04-21T10:10:27;101706.09;;;15.87;100.00
64340;BME280;63709;53.258;-8.814;2023-04-21T10:12:57;101702.59;;;16.07;100.00
64340;BME280;63709;53.258;-8.814;2023-04-21T10:15:36;101702.25;;;16.33;100.00
64340;BME280;63709;53.258;-8.814;2023-04-21T10:18:21;101708.13;;;16.06;100.00
64340;BME280;63709;53.258;-8.814;2023-04-21T10:20:51;101717.06;;;16.06;100.00
64340;BME280;63709;53.258;-8.814;2023-04-21T10:28:46;101681.78;;;16.09;100.00
64340;BME280;63709;53.258;-8.814;2023-04-21T10:39:35;101662.53;;;16.35;100.00
64340;BME280;63709;53.258;-8.814;2023-04-21T10:42:22;101660.88;;;16.02;100.00
64340;BME280;63709;53.258;-8.814;2023-04-21T10:47:37;101565.63;;;16.24;100.00
64340;BME280;63709;53.258;-8.814;2023-04-21T10:50:22;101586.97;;;16.36;100.00
64340;BME280;63709;53.258;-8.814;2023-04-21T10:53:06;101581.84;;;16.33;100.00
64340;BME280;63709;53.258;-8.814;2023-04-21T10:55:34;101621.44;;;16.94;98.67
64340;BME280;63709;53.258;-8.814;2023-04-21T10:58:02;101602.69;;;16.92;96.61
64340;BME280;63709;53.258;-8.814;2023-04-21T11:00:28;101566.53;;;17.05;93.43
64340;BME280;63709;53.258;-8.814;2023-04-21T11:02:57;101610.06;;;16.90;91.55
64340;BME280;63709;53.258;-8.814;2023-04-21T11:05:41;101620.25;;;17.17;88.98
64340;BME280;63709;53.258;-8.814;2023-04-21T11:08:12;101552.78;;;17.17;92.44
64340;BME280;63709;53.258;-8.814;2023-04-21T11:13:19;101613.63;;;17.89;84.50
64340;BME280;63709;53.258;-8.814;2023-04-21T11:16:05;101605.31;;;17.13;87.56
64340;BME280;63709;53.258;-8.814;2023-04-21T11:18:42;101589.13;;;17.23;89.40
64340;BME280;63709;53.258;-8.814;2023-04-21T11:21:16;101557.03;;;17.10;92.36
64340;BME280;63709;53.258;-8.814;2023-04-21T11:24:11;101613.41;;;17.13;97.85
64340;BME280;63709;53.258;-8.814;2023-04-21T11:26:37;101557.69;;;16.93;97.32
64340;BME280;63709;53.258;-8.814;2023-04-21T11:29:08;101566.63;;;16.93;94.18
64340;BME280;63709;53.258;-8.814;2023-04-21T11:31:37;101587.38;;;16.93;93.70
64340;BME280;63709;53.258;-8.814;2023-04-21T11:34:05;101538.16;;;17.10;95.32
64340;BME280;63709;53.258;-8.814;2023-04-21T11:39:03;101529.50;;;17.55;88.87
64340;BME280;63709;53.258;-8.814;2023-04-21T11:41:32;101523.09;;;17.95;92.57
64340;BME280;63709;53.258;-8.814;2023-04-21T11:43:58;101535.00;;;18.02;86.88
64340;BME280;63709;53.258;-8.814;2023-04-21T11:46:25;101501.13;;;18.18;89.37
64340;BME280;63709;53.258;-8.814;2023-04-21T11:49:09;101498.44;;;17.98;86.79
64340;BME280;63709;53.258;-8.814;2023-04-21T11:51:39;101539.03;;;18.35;87.85
64340;BME280;63709;53.258;-8.814;2023-04-21T11:54:07;101525.94;;;17.64;86.87
64340;BME280;63709;53.258;-8.814;2023-04-21T11:56:41;101533.38;;;18.29;85.33
64340;BME280;63709;53.258;-8.814;2023-04-21T11:59:13;101536.47;;;18.34;84.41
64340;BME280;63709;53.258;-8.814;2023-04-21T12:01:50;101477.66;;;17.42;85.12
64340;BME280;63709;53.258;-8.814;2023-04-21T12:04:25;101510.72;;;17.73;84.11
64340;BME280;63709;53.258;-8.814;2023-04-21T12:07:01;101534.13;;;18.02;86.74
64340;BME280;63709;53.258;-8.814;2023-04-21T12:09:28;101518.72;;;18.59;86.43
64340;BME280;63709;53.258;-8.814;2023-04-21T12:11:56;101510.72;;;18.40;80.83
64340;BME280;63709;53.258;-8.814;2023-04-21T12:14:24;101502.94;;;18.54;81.65
64340;BME280;63709;53.258;-8.814;2023-04-21T12:16:53;101513.31;;;18.22;84.90
64340;BME280;63709;53.258;-8.814;2023-04-21T12:19:39;101506.09;;;18.12;81.88
64340;BME280;63709;53.258;-8.814;2023-04-21T12:22:10;101509.25;;;18.45;83.26
64340;BME280;63709;53.258;-8.814;2023-04-21T12:24:36;101470.94;;;18.50;82.28
64340;BME280;63709;53.258;-8.814;2023-04-21T12:27:02;101475.53;;;18.67;80.51
64340;BME280;63709;53.258;-8.814;2023-04-21T12:29:28;101472.53;;;18.70;80.58
64340;BME280;63709;53.258;-8.814;2023-04-21T12:31:54;101427.81;;;18.76;81.78
64340;BME280;63709;53.258;-8.814;2023-04-21T12:34:19;101455.00;;;19.28;77.59
64340;BME280;63709;53.258;-8.814;2023-04-21T12:36:45;101447.56;;;19.92;76.30
64340;BME280;63709;53.258;-8.814;2023-04-21T12:39:11;101448.91;;;19.88;71.88
64340;BME280;63709;53.258;-8.814;2023-04-21T12:41:38;101452.78;;;19.85;69.50
64340;BME280;63709;53.258;-8.814;2023-04-21T12:44:03;101443.63;;;20.20;68.13
64340;BME280;63709;53.258;-8.814;2023-04-21T12:46:29;101435.59;;;20.45;71.52
64340;BME280;63709;53.258;-8.814;2023-04-21T12:48:55;101437.38;;;20.28;68.53
64340;BME280;63709;53.258;-8.814;2023-04-21T12:51:21;101384.53;;;19.90;65.35
64340;BME280;63709;53.258;-8.814;2023-04-21T12:53:47;101435.91;;;19.99;67.57
64340;BME280;63709;53.258;-8.814;2023-04-21T12:56:14;101393.69;;;19.89;68.40
64340;BME280;63709;53.258;-8.814;2023-04-21T12:58:40;101375.75;;;20.38;71.12